EGJA/ACI METAR and TAF weather

Enter ICAO airport designator
Station Type Date Time Source
EGJA METAR 2020/09/20 08:20 UTC NOAA

EGJA 200820Z 04014KT 9999 FEW006 17/15 Q1016


Station Type Date Time Source
EGJA Decoded METAR 2020/09/20 08:20 UTC NOAA

Alderney / Channel Island, United Kingdom (EGJA) 49-43N 002-12W
Sep 20, 2020 - 04:20 AM EDT / 2020.09.20 0820 UTC
Wind: from the NE (040 degrees) at 16 MPH (14 KT):0
Visibility: greater than 7 mile(s):0
Sky conditions: mostly clear
Temperature: 62 F (17 C)
Dew Point: 59 F (15 C)
Relative Humidity: 88%
Pressure (altimeter): 30.00 in. Hg (1016 hPa)
ob: EGJA 200820Z 04014KT 9999 FEW006 17/15 Q1016
cycle: 8

Station Type Date Time Source
EGJA TAF UTC NOAA

Error!

Example: see airport list